Time;durP1;ratioP1;P1;durP2;ratioP2;P2;SDS_P1;SDS_P2;PMS_P1;PMS_P2;Temp;Humidity;BMP_temperature;BMP_pressure;BME280_temperature;BME280_humidity;BME280_pressure;Samples;Min_cycle;Max_cycle;Signal;HPM_P1;HPM_P2
2022/05/01 00:00:23;;;;;;;;;13.25;11.00;;;;;12.35;41.36;101811.91;5034145;28;61763;-54
2022/05/01 00:02:48;;;;;;;;;12.75;9.50;;;;;12.33;41.59;101806.69;5035888;28;45804;-53
2022/05/01 00:05:13;;;;;;;;;12.00;9.00;;;;;12.33;41.62;101809.31;5035426;28;62254;-53
2022/05/01 00:07:39;;;;;;;;;9.75;8.50;;;;;12.33;41.25;101806.69;5032559;28;68382;-53
2022/05/01 00:10:05;;;;;;;;;9.00;8.00;;;;;12.30;41.66;101804.09;5038707;28;57993;-51
2022/05/01 00:12:30;;;;;;;;;12.50;9.00;;;;;12.28;41.52;101800.66;5035978;28;45425;-53
2022/05/01 00:14:56;;;;;;;;;8.25;7.50;;;;;12.27;41.86;101808.53;5038657;28;45463;-53
2022/05/01 00:17:21;;;;;;;;;10.50;10.50;;;;;12.24;41.54;101808.63;5036116;28;66923;-53
2022/05/01 00:19:47;;;;;;;;;10.50;10.25;;;;;12.20;41.82;101802.56;5038926;28;62942;-53
2022/05/01 00:22:12;;;;;;;;;14.25;12.75;;;;;12.18;41.83;101803.47;5037631;28;60399;-53
2022/05/01 00:24:37;;;;;;;;;12.50;9.75;;;;;12.12;42.00;101800.03;5031020;28;62121;-51
2022/05/01 00:27:03;;;;;;;;;12.50;9.25;;;;;12.12;41.69;101802.66;5038578;28;58441;-49
2022/05/01 00:29:30;;;;;;;;;12.25;10.75;;;;;12.09;42.09;101802.75;5031118;28;45454;-52
2022/05/01 00:31:56;;;;;;;;;11.75;9.25;;;;;12.02;42.18;101795.81;5040126;28;45256;-51
2022/05/01 00:37:05;;;;;;;;;12.75;10.75;;;;;11.98;42.47;101794.16;5033691;28;45738;-53
2022/05/01 00:39:30;;;;;;;;;13.75;9.00;;;;;11.96;42.58;101790.69;5033274;28;65958;-52
2022/05/01 00:41:56;;;;;;;;;13.00;12.00;;;;;11.93;42.37;101799.50;5039299;28;59759;-53
2022/05/01 00:44:21;;;;;;;;;11.50;11.00;;;;;11.90;42.55;101796.00;5032125;28;65993;-52
2022/05/01 00:46:51;;;;;;;;;10.75;9.25;;;;;11.88;42.79;101797.78;5039501;28;45455;-53
2022/05/01 00:49:21;;;;;;;;;8.50;7.25;;;;;11.87;43.02;101793.44;5032971;28;45408;-53
2022/05/01 00:51:50;;;;;;;;;13.00;10.50;;;;;11.86;42.33;101789.06;5039890;28;45268;-53
2022/05/01 00:54:17;;;;;;;;;16.00;11.25;;;;;11.84;42.70;101796.09;5032979;28;45494;-54
2022/05/01 00:56:44;;;;;;;;;12.75;8.50;;;;;11.81;43.00;101780.41;5039453;28;46224;-54
2022/05/01 00:59:10;;;;;;;;;13.00;11.75;;;;;11.79;42.65;101785.66;5032443;28;45790;-54
2022/05/01 01:01:35;;;;;;;;;13.75;10.75;;;;;11.75;43.03;101797.09;5035611;28;45249;-53
2022/05/01 01:04:01;;;;;;;;;13.00;9.25;;;;;11.72;42.71;101797.13;5029569;28;45194;-54
2022/05/01 01:06:26;;;;;;;;;11.00;8.50;;;;;11.69;43.12;101787.56;5033254;28;68928;-53
2022/05/01 01:08:52;;;;;;;;;17.00;11.25;;;;;11.70;43.34;101796.28;5029591;28;65228;-50
2022/05/01 01:11:18;;;;;;;;;9.75;7.75;;;;;11.68;43.21;101785.81;5020239;28;45248;-50
2022/05/01 01:13:46;;;;;;;;;13.50;10.00;;;;;11.66;43.15;101782.34;5036115;28;45510;-53
2022/05/01 01:16:11;;;;;;;;;26.50;17.50;;;;;11.64;43.46;101775.41;5037690;28;47090;-52
2022/05/01 01:18:39;;;;;;;;;10.00;7.25;;;;;11.62;43.50;101787.69;5034894;28;64622;-52
2022/05/01 01:21:06;;;;;;;;;22.50;17.00;;;;;11.60;43.23;101782.47;5039273;28;45530;-52
2022/05/01 01:23:31;;;;;;;;;24.00;16.00;;;;;11.57;43.37;101782.50;5033019;28;45344;-52
2022/05/01 01:25:56;;;;;;;;;14.00;12.00;;;;;11.53;43.82;101779.06;5033492;28;47048;-50
2022/05/01 01:28:22;;;;;;;;;12.50;12.25;;;;;11.51;44.26;101786.09;5031949;28;66310;-53
2022/05/01 01:33:31;;;;;;;;;15.75;12.25;;;;;11.48;43.83;101778.25;5019117;28;45230;-51
2022/05/01 01:36:00;;;;;;;;;12.75;12.00;;;;;11.47;43.81;101776.50;5038872;28;45990;-52
2022/05/01 01:38:26;;;;;;;;;19.00;13.00;;;;;11.45;44.29;101777.44;5032569;28;45372;-52
2022/05/01 01:40:55;;;;;;;;;12.75;9.75;;;;;11.45;44.31;101780.06;5038646;28;61000;-53
2022/05/01 01:43:25;;;;;;;;;14.75;11.25;;;;;11.44;43.89;101775.69;5038716;28;45323;-50
2022/05/01 01:45:51;;;;;;;;;15.00;10.75;;;;;11.41;44.28;101774.00;5040949;28;46248;-54
2022/05/01 01:48:17;;;;;;;;;13.00;11.75;;;;;11.41;44.26;101774.00;5035852;28;45485;-52
2022/05/01 01:50:43;;;;;;;;;20.00;14.00;;;;;11.39;44.26;101774.00;5042352;28;45543;-52
2022/05/01 01:53:10;;;;;;;;;18.00;12.50;;;;;11.37;43.87;101777.53;5035763;28;45354;-53
2022/05/01 01:55:37;;;;;;;;;13.25;11.75;;;;;11.32;44.38;101777.59;5042276;28;45341;-52
2022/05/01 01:58:02;;;;;;;;;17.25;11.75;;;;;11.27;44.15;101776.78;5035671;28;45272;-54
2022/05/01 02:00:28;;;;;;;;;14.00;11.75;;;;;11.24;44.10;101775.97;5042038;28;45275;-53
2022/05/01 02:03:00;;;;;;;;;15.75;11.00;;;;;11.16;44.78;101766.44;5036766;28;45402;-53
2022/05/01 02:05:26;;;;;;;;;15.50;12.75;;;;;11.12;44.38;101766.50;5033070;28;45419;-51
2022/05/01 02:07:51;;;;;;;;;12.50;11.25;;;;;11.06;44.47;101769.22;5036031;28;45367;-53
2022/05/01 02:10:17;;;;;;;;;14.00;13.50;;;;;11.01;45.19;101761.41;5042078;28;45286;-51
2022/05/01 02:12:43;;;;;;;;;14.75;10.25;;;;;10.99;44.84;101755.31;5038441;28;45441;-52
2022/05/01 02:15:09;;;;;;;;;12.00;6.25;;;;;10.97;45.36;101757.94;5039892;28;45277;-50
2022/05/01 02:17:34;;;;;;;;;13.00;11.00;;;;;10.97;45.27;101760.56;5039526;28;45403;-52
2022/05/01 02:20:00;;;;;;;;;18.00;11.75;;;;;10.97;44.38;101759.72;5042039;28;45482;-52
2022/05/01 02:22:26;;;;;;;;;18.50;11.50;;;;;10.93;45.13;101756.25;5039875;28;45450;-53
2022/05/01 02:24:51;;;;;;;;;13.50;10.25;;;;;10.92;45.31;101759.75;5032970;28;64379;-53
2022/05/01 02:27:16;;;;;;;;;21.25;11.25;;;;;10.91;45.20;101765.88;5037389;28;66850;-52
2022/05/01 02:29:44;;;;;;;;;16.50;12.25;;;;;10.89;45.55;101766.78;5036316;28;62594;-53
2022/05/01 02:32:09;;;;;;;;;17.25;13.00;;;;;10.86;44.80;101764.22;5040917;28;45486;-52
2022/05/01 02:34:34;;;;;;;;;15.50;13.50;;;;;10.83;45.10;101762.47;5035210;28;69538;-52
2022/05/01 02:37:00;;;;;;;;;13.00;12.25;;;;;10.76;45.54;101753.81;5040373;28;62171;-52
2022/05/01 02:39:25;;;;;;;;;13.00;10.00;;;;;10.71;45.69;101753.03;5035042;28;62937;-53
2022/05/01 02:41:51;;;;;;;;;19.50;12.00;;;;;10.70;46.04;101747.81;5040751;28;64882;-52
2022/05/01 02:44:16;;;;;;;;;15.75;13.50;;;;;10.68;46.00;101749.56;5033440;28;45996;-53
2022/05/01 02:46:41;;;;;;;;;15.50;13.00;;;;;10.70;46.30;101748.66;5041321;28;45488;-53
2022/05/01 02:49:07;;;;;;;;;24.75;17.00;;;;;10.71;45.97;101749.53;5034127;28;62396;-52
2022/05/01 02:51:32;;;;;;;;;20.50;15.25;;;;;10.69;45.97;101749.53;5041263;28;45384;-52
2022/05/01 02:53:58;;;;;;;;;15.00;12.25;;;;;10.70;46.25;101747.81;5034693;28;46879;-50
2022/05/01 02:56:24;;;;;;;;;19.75;13.25;;;;;10.70;46.35;101747.81;5041336;28;45279;-50
2022/05/01 02:58:49;;;;;;;;;19.25;12.00;;;;;10.68;46.49;101739.97;5034812;28;45285;-52
2022/05/01 03:01:15;;;;;;;;;24.25;15.25;;;;;10.67;45.63;101735.59;5036602;28;45290;-51
2022/05/01 03:03:40;;;;;;;;;16.25;13.00;;;;;10.61;46.26;101731.31;5034694;28;68005;-53
2022/05/01 03:06:06;;;;;;;;;17.75;13.50;;;;;10.58;46.15;101727.88;5037167;28;65757;-53
2022/05/01 03:08:31;;;;;;;;;16.00;11.50;;;;;10.56;46.65;101730.50;5036169;28;61985;-52
2022/05/01 03:10:56;;;;;;;;;13.00;11.00;;;;;10.55;46.55;101730.50;5040401;28;60726;-53
2022/05/01 03:13:22;;;;;;;;;17.75;12.75;;;;;10.51;45.98;101732.28;5037426;28;57492;-51
2022/05/01 03:15:47;;;;;;;;;17.25;14.00;;;;;10.50;46.43;101732.31;5039698;28;45344;-49
2022/05/01 03:23:40;;;;;;;;;15.00;14.75;;;;;10.50;47.16;101730.56;5033368;28;45489;-53
2022/05/01 03:26:06;;;;;;;;;19.00;13.25;;;;;10.50;47.03;101727.06;5037462;28;61932;-52
2022/05/01 03:28:31;;;;;;;;;14.25;12.25;;;;;10.50;46.91;101716.59;5035570;28;45331;-49
2022/05/01 03:30:57;;;;;;;;;19.25;13.25;;;;;10.49;46.99;101718.34;5037729;28;45216;-50
2022/05/01 03:33:23;;;;;;;;;20.50;13.50;;;;;10.51;46.93;101713.13;5033693;28;45411;-52
2022/05/01 03:35:49;;;;;;;;;14.25;12.00;;;;;10.48;46.99;101718.38;5040593;28;45423;-51
2022/05/01 03:38:15;;;;;;;;;17.25;14.50;;;;;10.50;47.12;101719.22;5035555;28;45253;-49
2022/05/01 03:40:47;;;;;;;;;16.00;13.75;;;;;10.49;47.18;101709.66;5037930;28;45162;-51
2022/05/01 03:43:16;;;;;;;;;21.00;13.00;;;;;10.45;47.02;101714.91;5033938;28;45420;-51
2022/05/01 03:45:41;;;;;;;;;17.25;13.00;;;;;10.44;47.37;101713.16;5040136;28;45390;-53
2022/05/01 03:48:07;;;;;;;;;25.25;17.00;;;;;10.42;47.27;101716.69;5033113;28;64350;-49
2022/05/01 03:50:33;;;;;;;;;18.00;12.25;;;;;10.41;47.21;101709.72;5040498;28;45352;-53
2022/05/01 03:52:58;;;;;;;;;25.00;14.25;;;;;10.39;46.85;101716.72;5033656;28;65966;-49
2022/05/01 03:55:24;;;;;;;;;16.25;11.75;;;;;10.35;47.07;101715.88;5038911;28;67937;-50
2022/05/01 03:57:49;;;;;;;;;17.25;15.00;;;;;10.34;47.20;101716.78;5035725;28;45220;-49
2022/05/01 04:00:20;;;;;;;;;18.75;15.50;;;;;10.32;47.46;101710.66;5038387;28;45291;-49
2022/05/01 04:02:46;;;;;;;;;15.50;12.50;;;;;10.29;46.99;101708.09;5035962;28;46129;-50
2022/05/01 04:05:15;;;;;;;;;23.25;16.50;;;;;10.24;47.34;101702.03;5034413;28;45297;-52
2022/05/01 04:07:40;;;;;;;;;19.25;16.50;;;;;10.24;47.82;101707.25;5036860;28;45326;-51
2022/05/01 04:10:07;;;;;;;;;18.75;15.00;;;;;10.23;47.73;101701.16;5039234;28;45483;-50
2022/05/01 04:12:36;;;;;;;;;20.00;12.25;;;;;10.24;48.11;101702.03;5037520;28;46540;-52
2022/05/01 04:15:03;;;;;;;;;25.00;15.25;;;;;10.23;48.29;101706.41;5037776;28;45354;-52
2022/05/01 04:17:29;;;;;;;;;19.25;15.25;;;;;10.23;48.03;101706.41;5038315;28;45316;-51
2022/05/01 04:19:54;;;;;;;;;18.25;16.00;;;;;10.27;47.91;101707.22;5039420;28;45454;-50
2022/05/01 04:22:20;;;;;;;;;19.25;16.25;;;;;10.29;47.68;101708.09;5035835;28;70557;-49
2022/05/01 04:24:46;;;;;;;;;17.75;16.25;;;;;10.30;47.73;101701.94;5031769;28;45233;-49
2022/05/01 04:27:11;;;;;;;;;21.00;12.50;;;;;10.30;48.11;101701.94;5038232;28;45355;-52
2022/05/01 04:29:37;;;;;;;;;18.75;15.75;;;;;10.29;48.14;101702.84;5034250;28;60560;-49
2022/05/01 04:32:04;;;;;;;;;18.25;17.00;;;;;10.28;48.03;101706.34;5039142;28;45906;-51
2022/05/01 04:34:30;;;;;;;;;18.75;16.25;;;;;10.32;47.97;101707.19;5038275;28;45369;-53
2022/05/01 04:36:55;;;;;;;;;18.50;14.50;;;;;10.32;47.56;101708.06;5039374;28;62048;-53
2022/05/01 04:39:21;;;;;;;;;18.25;15.00;;;;;10.29;47.34;101699.34;5032571;28;52711;-52
2022/05/01 04:41:47;;;;;;;;;19.25;15.75;;;;;10.26;47.45;101708.09;5039583;28;46301;-53
2022/05/01 04:44:12;;;;;;;;;20.75;13.75;;;;;10.21;47.82;101705.53;5032780;28;45460;-50
2022/05/01 04:46:37;;;;;;;;;21.75;13.25;;;;;10.21;48.35;101707.28;5039461;28;46955;-50
2022/05/01 04:49:03;;;;;;;;;20.75;15.00;;;;;10.16;47.48;101704.69;5032895;28;45254;-51
2022/05/01 04:51:28;;;;;;;;;21.00;16.00;;;;;10.14;48.04;101710.84;5038779;28;69045;-50
2022/05/01 04:53:54;;;;;;;;;24.25;17.25;;;;;10.12;47.80;101710.84;5032937;28;45443;-51
2022/05/01 04:59:07;;;;;;;;;21.50;17.75;;;;;10.11;48.44;101709.13;5033065;28;45235;-53
2022/05/01 05:01:33;;;;;;;;;19.75;16.50;;;;;10.12;48.10;101713.47;5034881;28;46228;-52
2022/05/01 05:03:59;;;;;;;;;22.75;17.00;;;;;10.13;48.49;101722.16;5033771;28;45803;-51
2022/05/01 05:06:24;;;;;;;;;26.25;18.50;;;;;10.12;47.89;101710.84;5035383;28;56303;-53
2022/05/01 05:11:33;;;;;;;;;21.75;18.75;;;;;10.13;47.91;101725.66;5036896;28;45349;-52
2022/05/01 05:13:58;;;;;;;;;25.00;18.00;;;;;10.12;48.03;101726.53;5035129;28;66417;-53
2022/05/01 05:16:24;;;;;;;;;21.00;14.25;;;;;10.08;47.67;101725.69;5040301;28;45833;-51
2022/05/01 05:18:49;;;;;;;;;30.00;18.00;;;;;10.07;48.73;101729.22;5035246;28;63562;-52
2022/05/01 05:21:14;;;;;;;;;21.00;19.00;;;;;10.09;48.80;101737.03;5039897;28;71268;-53
2022/05/01 05:23:40;;;;;;;;;18.25;17.25;;;;;10.12;48.52;101737.00;5034582;28;67708;-52
2022/05/01 05:26:05;;;;;;;;;20.25;17.75;;;;;10.16;48.15;101735.22;5039355;28;62663;-50
2022/05/01 05:28:30;;;;;;;;;22.50;16.00;;;;;10.18;48.83;101736.06;5035753;28;68045;-53
2022/05/01 05:30:57;;;;;;;;;24.25;16.25;;;;;10.23;48.73;101740.41;5039123;28;54982;-50
2022/05/01 05:33:22;;;;;;;;;17.00;16.75;;;;;10.28;48.66;101737.72;5037014;28;45389;-53
2022/05/01 05:35:47;;;;;;;;;26.50;18.25;;;;;10.33;48.60;101737.72;5042698;28;45255;-50
2022/05/01 05:38:13;;;;;;;;;26.25;18.75;;;;;10.38;48.59;101744.66;5035949;28;45479;-54
2022/05/01 05:40:38;;;;;;;;;25.50;18.75;;;;;10.42;48.68;101745.47;5042433;28;45874;-50
2022/05/01 05:43:04;;;;;;;;;26.00;19.25;;;;;10.46;48.73;101744.56;5035925;28;45332;-51
2022/05/01 05:45:29;;;;;;;;;24.00;17.75;;;;;10.38;48.28;101718.47;5042375;28;45352;-53
2022/05/01 05:47:55;;;;;;;;;17.25;15.50;;;;;10.49;48.16;101725.34;5036351;28;55649;-52
2022/05/01 05:50:20;;;;;;;;;23.25;18.75;;;;;10.61;48.44;101741.78;5036729;28;45900;-53
2022/05/01 05:52:46;;;;;;;;;19.75;18.25;;;;;10.64;48.25;101740.88;5038067;28;45340;-53
2022/05/01 05:55:11;;;;;;;;;19.00;13.75;;;;;10.69;48.17;101739.06;5036181;28;45285;-53
2022/05/01 05:57:36;;;;;;;;;29.00;18.50;;;;;10.72;47.97;101740.81;5038406;28;67533;-54
2022/05/01 06:00:03;;;;;;;;;25.00;17.75;;;;;10.75;48.29;101732.91;5037645;28;69061;-53
2022/05/01 06:02:29;;;;;;;;;23.00;17.00;;;;;10.80;47.81;101728.47;5040149;28;45994;-50
2022/05/01 06:04:54;;;;;;;;;19.25;16.25;;;;;10.82;47.82;101726.72;5033301;28;59647;-52
2022/05/01 06:07:19;;;;;;;;;22.00;17.75;;;;;10.82;47.59;101721.50;5039261;28;65672;-54
2022/05/01 06:09:45;;;;;;;;;27.50;19.25;;;;;10.81;48.14;101730.22;5038260;28;68837;-53
2022/05/01 06:12:10;;;;;;;;;17.25;16.25;;;;;10.80;47.79;101725.84;5039852;28;64399;-53
2022/05/01 06:14:36;;;;;;;;;22.75;16.50;;;;;10.85;48.03;101720.56;5038582;28;45380;-53
2022/05/01 06:17:01;;;;;;;;;21.50;20.25;;;;;10.86;47.87;101732.78;5041448;28;45558;-51
2022/05/01 06:19:26;;;;;;;;;27.00;20.75;;;;;10.88;48.26;101736.25;5040060;28;47092;-53
2022/05/01 06:21:52;;;;;;;;;23.00;18.50;;;;;10.92;47.95;101737.94;5041396;28;61617;-52
2022/05/01 06:24:17;;;;;;;;;24.00;20.00;;;;;10.96;48.45;101731.78;5031400;28;57939;-53
2022/05/01 06:26:43;;;;;;;;;25.00;21.25;;;;;11.02;47.86;101736.94;5039874;28;47278;-53
2022/05/01 06:29:08;;;;;;;;;29.75;21.50;;;;;11.07;48.04;101736.91;5034173;28;69155;-53
2022/05/01 06:31:34;;;;;;;;;23.25;21.25;;;;;11.08;48.07;101733.38;5041853;28;45276;-52
2022/05/01 06:34:00;;;;;;;;;24.50;19.75;;;;;11.17;47.66;101742.00;5015510;28;45448;-53
2022/05/01 06:36:25;;;;;;;;;27.00;21.75;;;;;11.23;48.08;101737.56;5041039;28;59382;-50
2022/05/01 06:38:50;;;;;;;;;24.00;19.00;;;;;11.29;47.88;101737.47;5034974;28;46914;-53
2022/05/01 06:41:16;;;;;;;;;23.25;19.75;;;;;11.33;47.84;101750.50;5041009;28;55675;-52
2022/05/01 06:43:41;;;;;;;;;25.25;20.50;;;;;11.37;47.88;101743.47;5032396;28;57275;-53
2022/05/01 06:46:07;;;;;;;;;26.75;23.50;;;;;11.43;47.78;101746.00;5039177;28;64701;-51
2022/05/01 06:48:32;;;;;;;;;27.00;22.00;;;;;11.49;47.31;101747.66;5033900;28;65732;-52
2022/05/01 06:50:57;;;;;;;;;28.25;19.75;;;;;11.52;47.20;101756.34;5041389;28;45374;-53
2022/05/01 06:53:23;;;;;;;;;27.50;22.25;;;;;11.56;47.56;101757.16;5037094;28;46301;-52
2022/05/01 06:55:49;;;;;;;;;37.50;24.75;;;;;11.59;47.43;101763.22;5040628;28;67892;-53
2022/05/01 06:58:14;;;;;;;;;27.25;22.25;;;;;11.64;47.58;101764.94;5034406;28;46153;-53
2022/05/01 07:00:40;;;;;;;;;31.75;25.00;;;;;11.67;47.45;101763.13;5041165;28;45381;-53
2022/05/01 07:03:05;;;;;;;;;24.25;19.00;;;;;11.69;47.33;101758.72;5035405;28;45488;-53
2022/05/01 07:05:30;;;;;;;;;28.00;23.25;;;;;11.71;47.34;101756.09;5040121;28;45450;-53
2022/05/01 07:07:56;;;;;;;;;35.75;22.25;;;;;11.80;47.59;101752.47;5035343;28;66484;-53
2022/05/01 07:10:22;;;;;;;;;39.50;25.75;;;;;11.86;47.65;101753.19;5040190;28;64254;-53
2022/05/01 07:12:47;;;;;;;;;27.75;22.50;;;;;11.91;46.95;101753.16;5034985;28;45302;-53
2022/05/01 07:15:13;;;;;;;;;29.00;24.00;;;;;11.89;47.30;101750.53;5038931;28;45493;-53
2022/05/01 07:17:38;;;;;;;;;33.00;22.50;;;;;11.95;47.30;101752.22;5038045;28;45460;-51
2022/05/01 07:20:04;;;;;;;;;22.50;21.75;;;;;12.01;47.35;101748.66;5040890;28;45293;-52
2022/05/01 07:22:29;;;;;;;;;31.75;22.50;;;;;12.07;47.06;101738.03;5038907;28;45207;-54
2022/05/01 07:24:55;;;;;;;;;28.75;23.75;;;;;12.11;47.21;101734.47;5033162;28;45222;-51
2022/05/01 07:27:20;;;;;;;;;27.75;22.25;;;;;12.22;47.26;101742.19;5038799;28;46118;-51
2022/05/01 07:29:46;;;;;;;;;29.00;24.25;;;;;12.32;47.27;101743.72;5035331;28;65481;-53
2022/05/01 07:32:11;;;;;;;;;32.00;25.50;;;;;12.43;46.82;101743.53;5039951;28;45329;-52
2022/05/01 07:34:37;;;;;;;;;32.00;24.25;;;;;12.54;46.47;101744.22;5031982;28;66743;-52
2022/05/01 07:37:02;;;;;;;;;33.00;24.00;;;;;12.60;46.70;101744.06;5040099;28;46020;-52
2022/05/01 07:39:28;;;;;;;;;27.25;26.00;;;;;12.61;46.37;101734.47;5032076;28;45344;-53
2022/05/01 07:41:54;;;;;;;;;24.00;21.75;;;;;12.69;46.32;101743.88;5040709;28;45363;-49
2022/05/01 07:44:19;;;;;;;;;27.75;22.00;;;;;12.74;46.05;101746.44;5033658;28;45462;-51
2022/05/01 07:46:45;;;;;;;;;28.50;21.25;;;;;12.79;46.26;101741.97;5039590;28;63826;-52
2022/05/01 07:49:10;;;;;;;;;25.25;20.25;;;;;12.84;46.17;101740.09;5033376;28;52014;-53
2022/05/01 07:51:36;;;;;;;;;20.75;20.00;;;;;12.84;45.89;101736.63;5052280;28;54810;-52
2022/05/01 07:54:02;;;;;;;;;29.75;26.00;;;;;12.88;45.88;101741.75;5033762;28;45166;-52
2022/05/01 07:56:27;;;;;;;;;31.50;23.75;;;;;12.94;45.74;101738.13;5040301;28;46106;-53
2022/05/01 07:58:53;;;;;;;;;19.75;16.75;;;;;13.01;45.82;101734.50;5033691;28;45879;-54
2022/05/01 08:01:18;;;;;;;;;22.75;20.00;;;;;13.07;45.52;101726.50;5039410;28;64188;-53
2022/05/01 08:06:27;;;;;;;;;25.50;22.00;;;;;13.20;45.23;101724.44;5036218;28;45245;-54
2022/05/01 08:08:53;;;;;;;;;22.00;19.00;;;;;13.24;45.20;101735.75;5034630;28;68099;-54
2022/05/01 08:11:18;;;;;;;;;23.00;19.50;;;;;13.27;44.92;101733.06;5039353;28;62291;-55
2022/05/01 08:13:44;;;;;;;;;28.75;22.00;;;;;13.35;44.89;101722.41;5036356;28;45443;-51
2022/05/01 08:16:09;;;;;;;;;27.75;21.25;;;;;13.44;44.89;101724.84;5037419;28;64981;-53
2022/05/01 08:21:38;;;;;;;;;28.00;23.00;;;;;13.68;44.31;101721.63;5025244;28;45265;-53
2022/05/01 08:24:04;;;;;;;;;20.75;20.75;;;;;13.78;44.09;101727.53;5035569;28;45380;-53
2022/05/01 08:26:33;;;;;;;;;22.25;18.00;;;;;13.88;44.14;101724.66;5038403;28;46226;-54
2022/05/01 08:28:58;;;;;;;;;25.75;21.00;;;;;13.96;43.83;101717.47;5032984;28;45394;-52
2022/05/01 08:31:24;;;;;;;;;22.75;19.00;;;;;14.00;44.10;101713.84;5040084;28;45483;-53
2022/05/01 08:33:49;;;;;;;;;25.50;21.00;;;;;14.01;43.48;101705.91;5033517;28;67291;-54
2022/05/01 08:36:15;;;;;;;;;26.25;21.50;;;;;14.08;43.46;101714.50;5038260;28;58034;-54
2022/05/01 08:38:42;;;;;;;;;21.25;19.50;;;;;14.14;43.59;101705.59;5032476;28;63317;-53
2022/05/01 08:41:07;;;;;;;;;28.75;23.00;;;;;14.24;43.05;101709.72;5039905;28;45375;-53
2022/05/01 08:43:33;;;;;;;;;27.50;22.75;;;;;14.29;43.01;101704.31;5033053;28;45521;-53
2022/05/01 08:46:27;;;;;;;;;29.00;22.75;;;;;14.35;42.88;101704.16;5039267;28;45983;-53
2022/05/01 08:49:06;;;;;;;;;25.25;21.50;;;;;14.40;42.64;101699.63;5032805;28;45337;-52
2022/05/01 08:51:41;;;;;;;;;20.25;19.25;;;;;14.45;42.21;101708.25;5039357;28;45382;-53
2022/05/01 08:54:10;;;;;;;;;25.00;21.50;;;;;14.54;42.05;101702.72;5033017;28;45465;-53
2022/05/01 08:56:36;;;;;;;;;23.50;18.25;;;;;14.59;42.34;101703.50;5034366;28;46268;-54
2022/05/01 08:59:04;;;;;;;;;23.50;19.50;;;;;14.67;42.35;101698.00;5032776;28;45312;-51
2022/05/01 09:01:33;;;;;;;;;19.50;18.50;;;;;14.83;42.14;101698.44;5039468;28;45255;-53
2022/05/01 09:03:59;;;;;;;;;26.50;20.00;;;;;15.02;41.93;101697.91;5034079;28;45381;-51
2022/05/01 09:06:25;;;;;;;;;25.75;18.75;;;;;15.26;41.76;101696.25;5035860;28;45350;-51
2022/05/01 09:08:51;;;;;;;;;25.75;21.00;;;;;15.56;41.27;101689.16;5030390;28;45446;-50
2022/05/01 09:14:04;;;;;;;;;27.50;20.50;;;;;16.48;40.32;101686.03;5035802;28;45399;-52
2022/05/01 09:16:29;;;;;;;;;24.25;18.25;;;;;17.30;39.98;101688.25;5037623;28;46280;-53
2022/05/01 09:18:55;;;;;;;;;23.50;19.25;;;;;18.29;38.76;101681.47;5036899;28;45366;-51
2022/05/01 09:21:20;;;;;;;;;20.75;17.00;;;;;19.34;36.86;101675.72;5039205;28;45360;-52
2022/05/01 09:23:47;;;;;;;;;24.75;19.00;;;;;20.41;36.11;101673.84;5030356;28;66403;-51
2022/05/01 09:26:19;;;;;;;;;25.25;19.50;;;;;21.38;35.13;101678.34;5036091;28;46142;-53
2022/05/01 09:28:51;;;;;;;;;24.00;20.00;;;;;22.33;33.57;101680.72;5032838;28;45840;-52
2022/05/01 09:31:17;;;;;;;;;25.75;22.25;;;;;23.33;32.73;101678.88;5028024;28;45265;-53
2022/05/01 09:33:42;;;;;;;;;25.25;20.50;;;;;24.24;32.04;101676.31;5030519;28;45513;-52
2022/05/01 09:36:09;;;;;;;;;37.00;26.00;;;;;24.97;29.00;101668.50;5038816;28;45618;-53
2022/05/01 09:38:35;;;;;;;;;22.50;16.75;;;;;25.57;28.92;101677.47;5027793;28;45880;-52
2022/05/01 09:41:03;;;;;;;;;18.50;16.00;;;;;26.01;29.31;101677.75;5038989;28;45228;-51
2022/05/01 09:43:42;;;;;;;;;20.00;14.00;;;;;26.43;28.29;101667.28;5031223;28;45358;-52
2022/05/01 09:46:24;;;;;;;;;17.25;14.50;;;;;26.82;27.94;101662.41;5038455;28;46413;-53
2022/05/01 09:48:59;;;;;;;;;12.50;10.75;;;;;27.02;26.74;101669.72;5032249;28;45388;-50
2022/05/01 09:51:28;;;;;;;;;23.00;21.50;;;;;27.30;25.29;101663.91;5039016;28;45349;-52
2022/05/01 09:53:54;;;;;;;;;21.75;18.50;;;;;27.46;26.42;101675.94;5032252;28;45208;-54
2022/05/01 09:56:19;;;;;;;;;18.75;17.00;;;;;27.55;26.55;101666.25;5037815;28;69356;-53
2022/05/01 09:58:45;;;;;;;;;21.00;17.25;;;;;27.51;24.31;101662.09;5031480;28;59173;-53
2022/05/01 10:01:14;;;;;;;;;20.75;16.50;;;;;27.55;24.88;101657.31;5037478;28;45269;-53
2022/05/01 10:03:43;;;;;;;;;15.50;15.00;;;;;27.50;25.15;101656.84;5035619;28;45315;-53
2022/05/01 10:06:10;;;;;;;;;18.25;14.00;;;;;27.65;25.39;101660.94;5040844;28;46863;-53
2022/05/01 10:08:37;;;;;;;;;20.00;17.50;;;;;27.83;24.11;101650.44;5037287;28;45842;-53
2022/05/01 10:11:03;;;;;;;;;15.25;15.25;;;;;28.03;25.07;101644.22;5041994;28;45419;-51
2022/05/01 10:13:28;;;;;;;;;15.00;13.75;;;;;28.04;24.14;101642.38;5034136;28;45563;-51
2022/05/01 10:15:54;;;;;;;;;15.75;14.25;;;;;27.96;23.82;101645.75;5033764;28;47015;-51
2022/05/01 10:18:20;;;;;;;;;23.00;18.00;;;;;27.99;23.17;101645.47;5035969;28;45405;-52
2022/05/01 10:20:45;;;;;;;;;17.25;15.50;;;;;28.05;24.11;101638.72;5035026;28;45506;-52
2022/05/01 10:23:11;;;;;;;;;18.00;15.00;;;;;28.20;24.47;101641.88;5035350;28;70015;-53
2022/05/01 10:25:39;;;;;;;;;13.75;13.75;;;;;28.45;23.97;101635.19;5041731;28;46190;-50
2022/05/01 10:28:38;;;;;;;;;17.75;16.00;;;;;28.71;23.71;101632.88;5018137;28;45350;-51
2022/05/01 10:34:18;;;;;;;;;15.25;12.75;;;;;30.15;22.60;101619.63;5035247;28;45372;-51
2022/05/01 10:37:07;;;;;;;;;16.50;15.50;;;;;30.33;22.34;101614.28;5033726;28;46221;-51
2022/05/01 10:39:34;;;;;;;;;17.75;16.00;;;;;30.17;21.33;101617.63;5031409;28;45244;-52
2022/05/01 10:42:00;;;;;;;;;18.50;16.50;;;;;30.07;21.32;101618.53;5036609;28;45226;-53
2022/05/01 10:44:35;;;;;;;;;19.00;12.75;;;;;29.83;20.66;101619.00;5035077;28;45332;-53
2022/05/01 10:47:21;;;;;;;;;16.00;12.50;;;;;29.60;21.89;101610.38;5040876;28;46329;-54
2022/05/01 10:49:47;;;;;;;;;15.00;13.50;;;;;29.35;21.76;101606.44;5040093;28;45362;-50
2022/05/01 10:52:15;;;;;;;;;14.25;13.25;;;;;29.18;20.77;101605.31;5039762;28;45430;-50
2022/05/01 10:54:44;;;;;;;;;21.00;18.75;;;;;28.98;21.84;101604.41;5038507;28;45278;-50
2022/05/01 10:57:10;;;;;;;;;17.25;15.75;;;;;28.62;21.32;101597.88;5038537;28;46267;-50
2022/05/01 10:59:42;;;;;;;;;12.25;12.25;;;;;27.73;22.00;101595.72;5032367;28;45714;-52
2022/05/01 11:02:25;;;;;;;;;15.00;11.75;;;;;26.63;22.95;101590.53;5027824;28;45365;-52
2022/05/01 11:04:54;;;;;;;;;15.00;12.25;;;;;25.75;22.85;101592.94;5037128;28;45513;-54
2022/05/01 11:07:20;;;;;;;;;16.50;14.25;;;;;25.06;23.48;101597.34;5039113;28;46629;-54
2022/05/01 11:09:47;;;;;;;;;13.75;11.75;;;;;24.39;24.37;101588.75;5039049;28;45272;-53
2022/05/01 11:12:14;;;;;;;;;11.00;11.00;;;;;23.89;24.99;101582.50;5039646;28;45292;-53
2022/05/01 11:14:39;;;;;;;;;16.00;12.50;;;;;23.49;24.70;101572.69;5038351;28;45296;-53
2022/05/01 11:17:05;;;;;;;;;15.00;13.67;;;;;23.22;25.00;101577.25;5040255;28;46295;-54
2022/05/01 11:19:50;;;;;;;;;15.50;12.00;;;;;22.92;25.10;101573.81;5031139;28;45257;-53
2022/05/01 11:22:16;;;;;;;;;12.00;10.75;;;;;22.64;26.10;101572.09;5038932;28;45320;-52
2022/05/01 11:24:42;;;;;;;;;19.25;15.75;;;;;22.35;26.08;101572.16;5039390;28;45641;-53
2022/05/01 11:27:10;;;;;;;;;20.25;14.50;;;;;22.16;26.20;101569.75;5039785;28;46456;-53
2022/05/01 11:29:36;;;;;;;;;16.75;15.25;;;;;22.11;26.10;101563.00;5033210;28;45349;-53
2022/05/01 11:32:19;;;;;;;;;14.50;13.00;;;;;22.04;26.83;101554.50;5040663;28;45347;-53
2022/05/01 11:34:50;;;;;;;;;13.75;12.25;;;;;22.24;26.76;101555.06;5030219;28;45391;-52